sensor_id;sensor_type;location;lat;lon;timestamp;P1;durP1;ratioP1;P2;durP2;ratioP2
50733;SDS011;36701;51.798;19.474;2023-07-02T02:01:27;12.93;;;7.40;;
50733;SDS011;36701;51.798;19.474;2023-07-02T02:04:00;11.20;;;7.12;;
50733;SDS011;36701;51.798;19.474;2023-07-02T02:06:26;12.52;;;7.97;;
50733;SDS011;36701;51.798;19.474;2023-07-02T02:08:52;10.60;;;7.32;;
50733;SDS011;36701;51.798;19.474;2023-07-02T02:11:19;10.07;;;7.30;;
50733;SDS011;36701;51.798;19.474;2023-07-02T02:13:45;13.27;;;8.20;;
50733;SDS011;36701;51.798;19.474;2023-07-02T02:16:11;8.93;;;6.75;;
50733;SDS011;36701;51.798;19.474;2023-07-02T02:18:37;10.18;;;7.50;;
50733;SDS011;36701;51.798;19.474;2023-07-02T02:21:03;14.20;;;6.62;;
50733;SDS011;36701;51.798;19.474;2023-07-02T02:23:30;11.45;;;7.50;;
50733;SDS011;36701;51.798;19.474;2023-07-02T02:25:58;12.60;;;8.98;;
50733;SDS011;36701;51.798;19.474;2023-07-02T02:28:24;11.02;;;7.75;;
50733;SDS011;36701;51.798;19.474;2023-07-02T02:30:50;9.32;;;6.93;;
50733;SDS011;36701;51.798;19.474;2023-07-02T02:33:17;11.02;;;7.70;;
50733;SDS011;36701;51.798;19.474;2023-07-02T02:35:44;16.48;;;7.30;;
50733;SDS011;36701;51.798;19.474;2023-07-02T02:38:12;11.12;;;7.43;;
50733;SDS011;36701;51.798;19.474;2023-07-02T02:40:40;11.73;;;7.18;;
50733;SDS011;36701;51.798;19.474;2023-07-02T02:43:08;15.23;;;7.82;;
50733;SDS011;36701;51.798;19.474;2023-07-02T02:45:36;14.60;;;6.65;;
50733;SDS011;36701;51.798;19.474;2023-07-02T02:48:02;11.30;;;7.10;;
50733;SDS011;36701;51.798;19.474;2023-07-02T02:50:28;12.43;;;7.62;;
50733;SDS011;36701;51.798;19.474;2023-07-02T02:52:54;10.77;;;7.35;;
50733;SDS011;36701;51.798;19.474;2023-07-02T02:55:20;10.02;;;6.10;;
50733;SDS011;36701;51.798;19.474;2023-07-02T02:57:47;8.80;;;6.68;;
50733;SDS011;36701;51.798;19.474;2023-07-02T03:00:13;9.43;;;6.78;;
50733;SDS011;36701;51.798;19.474;2023-07-02T03:02:39;12.35;;;7.90;;
50733;SDS011;36701;51.798;19.474;2023-07-02T03:05:06;11.57;;;7.12;;
50733;SDS011;36701;51.798;19.474;2023-07-02T03:07:32;11.60;;;6.87;;
50733;SDS011;36701;51.798;19.474;2023-07-02T03:09:58;10.05;;;7.43;;
50733;SDS011;36701;51.798;19.474;2023-07-02T03:12:26;10.25;;;7.10;;
50733;SDS011;36701;51.798;19.474;2023-07-02T03:14:52;11.25;;;8.10;;
50733;SDS011;36701;51.798;19.474;2023-07-02T03:17:20;13.35;;;6.97;;
50733;SDS011;36701;51.798;19.474;2023-07-02T03:19:52;9.35;;;6.57;;
50733;SDS011;36701;51.798;19.474;2023-07-02T03:22:19;12.20;;;6.68;;
50733;SDS011;36701;51.798;19.474;2023-07-02T03:24:45;14.18;;;6.78;;
50733;SDS011;36701;51.798;19.474;2023-07-02T03:27:11;9.18;;;6.15;;
50733;SDS011;36701;51.798;19.474;2023-07-02T03:29:37;10.98;;;7.28;;
50733;SDS011;36701;51.798;19.474;2023-07-02T03:32:04;9.35;;;6.05;;
50733;SDS011;36701;51.798;19.474;2023-07-02T03:34:30;11.02;;;6.95;;
50733;SDS011;36701;51.798;19.474;2023-07-02T03:36:56;15.48;;;6.57;;
50733;SDS011;36701;51.798;19.474;2023-07-02T03:39:22;9.30;;;6.30;;
50733;SDS011;36701;51.798;19.474;2023-07-02T03:41:48;9.55;;;6.70;;
50733;SDS011;36701;51.798;19.474;2023-07-02T03:44:15;11.93;;;7.07;;
50733;SDS011;36701;51.798;19.474;2023-07-02T03:46:41;8.35;;;5.87;;
50733;SDS011;36701;51.798;19.474;2023-07-02T03:49:07;10.02;;;6.20;;
50733;SDS011;36701;51.798;19.474;2023-07-02T03:51:33;10.73;;;6.75;;
50733;SDS011;36701;51.798;19.474;2023-07-02T03:53:59;9.93;;;6.55;;
50733;SDS011;36701;51.798;19.474;2023-07-02T03:56:25;9.23;;;6.85;;
50733;SDS011;36701;51.798;19.474;2023-07-02T03:58:52;13.15;;;7.75;;
50733;SDS011;36701;51.798;19.474;2023-07-02T04:01:19;10.27;;;7.15;;
50733;SDS011;36701;51.798;19.474;2023-07-02T04:03:48;11.25;;;7.10;;
50733;SDS011;36701;51.798;19.474;2023-07-02T04:06:15;10.60;;;7.37;;
50733;SDS011;36701;51.798;19.474;2023-07-02T04:08:41;13.57;;;7.03;;
50733;SDS011;36701;51.798;19.474;2023-07-02T04:11:07;11.57;;;6.78;;
50733;SDS011;36701;51.798;19.474;2023-07-02T04:13:33;19.08;;;7.40;;
50733;SDS011;36701;51.798;19.474;2023-07-02T04:15:59;14.63;;;7.45;;
50733;SDS011;36701;51.798;19.474;2023-07-02T04:18:26;15.93;;;7.05;;
50733;SDS011;36701;51.798;19.474;2023-07-02T04:20:52;11.10;;;7.05;;
50733;SDS011;36701;51.798;19.474;2023-07-02T04:23:18;14.40;;;7.35;;
50733;SDS011;36701;51.798;19.474;2023-07-02T04:25:44;12.95;;;6.93;;
50733;SDS011;36701;51.798;19.474;2023-07-02T04:28:10;13.88;;;7.43;;
50733;SDS011;36701;51.798;19.474;2023-07-02T04:30:36;20.17;;;7.82;;
50733;SDS011;36701;51.798;19.474;2023-07-02T04:33:03;12.30;;;7.70;;
50733;SDS011;36701;51.798;19.474;2023-07-02T04:35:28;11.93;;;6.85;;
50733;SDS011;36701;51.798;19.474;2023-07-02T04:37:55;11.93;;;7.70;;
50733;SDS011;36701;51.798;19.474;2023-07-02T04:42:55;11.43;;;6.87;;
50733;SDS011;36701;51.798;19.474;2023-07-02T04:45:26;11.95;;;6.65;;
50733;SDS011;36701;51.798;19.474;2023-07-02T04:47:57;13.77;;;6.62;;
50733;SDS011;36701;51.798;19.474;2023-07-02T04:50:26;9.82;;;6.68;;
50733;SDS011;36701;51.798;19.474;2023-07-02T04:52:53;10.55;;;6.75;;
50733;SDS011;36701;51.798;19.474;2023-07-02T04:55:19;12.73;;;6.45;;
50733;SDS011;36701;51.798;19.474;2023-07-02T04:57:46;18.90;;;6.37;;
50733;SDS011;36701;51.798;19.474;2023-07-02T05:00:12;19.25;;;6.85;;
50733;SDS011;36701;51.798;19.474;2023-07-02T05:02:39;10.63;;;6.72;;
50733;SDS011;36701;51.798;19.474;2023-07-02T05:05:08;15.05;;;6.70;;
50733;SDS011;36701;51.798;19.474;2023-07-02T05:07:35;9.15;;;6.80;;
50733;SDS011;36701;51.798;19.474;2023-07-02T05:10:04;18.62;;;6.30;;
50733;SDS011;36701;51.798;19.474;2023-07-02T05:12:31;9.70;;;6.57;;
50733;SDS011;36701;51.798;19.474;2023-07-02T05:15:00;11.70;;;5.87;;
50733;SDS011;36701;51.798;19.474;2023-07-02T05:17:26;15.18;;;5.60;;
50733;SDS011;36701;51.798;19.474;2023-07-02T05:19:52;11.90;;;6.25;;
50733;SDS011;36701;51.798;19.474;2023-07-02T05:22:19;6.05;;;5.12;;
50733;SDS011;36701;51.798;19.474;2023-07-02T05:24:45;10.60;;;5.45;;
50733;SDS011;36701;51.798;19.474;2023-07-02T05:27:12;11.32;;;6.57;;
50733;SDS011;36701;51.798;19.474;2023-07-02T05:29:38;12.00;;;6.25;;
50733;SDS011;36701;51.798;19.474;2023-07-02T05:32:04;8.85;;;5.78;;
50733;SDS011;36701;51.798;19.474;2023-07-02T05:34:30;11.12;;;5.18;;
50733;SDS011;36701;51.798;19.474;2023-07-02T05:36:57;10.15;;;6.10;;
50733;SDS011;36701;51.798;19.474;2023-07-02T05:39:22;15.68;;;5.80;;
50733;SDS011;36701;51.798;19.474;2023-07-02T05:41:49;8.57;;;5.07;;
50733;SDS011;36701;51.798;19.474;2023-07-02T05:44:15;13.27;;;6.15;;
50733;SDS011;36701;51.798;19.474;2023-07-02T05:46:42;9.60;;;4.95;;
50733;SDS011;36701;51.798;19.474;2023-07-02T05:49:08;8.15;;;5.35;;
50733;SDS011;36701;51.798;19.474;2023-07-02T05:51:34;8.15;;;5.15;;
50733;SDS011;36701;51.798;19.474;2023-07-02T05:54:00;6.80;;;4.78;;
50733;SDS011;36701;51.798;19.474;2023-07-02T05:56:27;11.27;;;4.82;;
50733;SDS011;36701;51.798;19.474;2023-07-02T05:58:53;14.45;;;5.03;;
50733;SDS011;36701;51.798;19.474;2023-07-02T06:01:19;12.98;;;4.87;;
50733;SDS011;36701;51.798;19.474;2023-07-02T06:03:45;6.95;;;5.12;;
50733;SDS011;36701;51.798;19.474;2023-07-02T06:06:11;13.68;;;5.37;;
50733;SDS011;36701;51.798;19.474;2023-07-02T06:08:37;10.43;;;6.28;;
50733;SDS011;36701;51.798;19.474;2023-07-02T06:11:04;5.75;;;5.18;;
50733;SDS011;36701;51.798;19.474;2023-07-02T06:13:30;5.12;;;4.53;;
50733;SDS011;36701;51.798;19.474;2023-07-02T06:15:56;20.25;;;5.20;;
50733;SDS011;36701;51.798;19.474;2023-07-02T06:18:23;7.28;;;5.18;;
50733;SDS011;36701;51.798;19.474;2023-07-02T06:20:50;6.97;;;4.65;;
50733;SDS011;36701;51.798;19.474;2023-07-02T06:23:16;7.80;;;4.97;;
50733;SDS011;36701;51.798;19.474;2023-07-02T06:25:42;14.15;;;4.78;;
50733;SDS011;36701;51.798;19.474;2023-07-02T06:28:09;7.60;;;5.47;;
50733;SDS011;36701;51.798;19.474;2023-07-02T06:30:35;12.73;;;4.55;;
50733;SDS011;36701;51.798;19.474;2023-07-02T06:33:01;6.87;;;3.80;;
50733;SDS011;36701;51.798;19.474;2023-07-02T06:35:27;6.30;;;4.25;;
50733;SDS011;36701;51.798;19.474;2023-07-02T06:37:53;5.62;;;4.22;;
50733;SDS011;36701;51.798;19.474;2023-07-02T06:40:20;3.72;;;3.22;;
50733;SDS011;36701;51.798;19.474;2023-07-02T06:42:48;3.70;;;3.40;;
50733;SDS011;36701;51.798;19.474;2023-07-02T06:45:14;3.83;;;3.22;;
50733;SDS011;36701;51.798;19.474;2023-07-02T06:47:40;13.18;;;4.18;;
50733;SDS011;36701;51.798;19.474;2023-07-02T06:50:06;5.47;;;3.25;;
50733;SDS011;36701;51.798;19.474;2023-07-02T06:52:32;3.33;;;3.03;;
50733;SDS011;36701;51.798;19.474;2023-07-02T06:54:59;6.22;;;3.58;;
50733;SDS011;36701;51.798;19.474;2023-07-02T06:57:25;4.03;;;3.30;;
50733;SDS011;36701;51.798;19.474;2023-07-02T06:59:51;10.27;;;3.58;;
50733;SDS011;36701;51.798;19.474;2023-07-02T07:02:17;13.90;;;3.22;;
50733;SDS011;36701;51.798;19.474;2023-07-02T07:04:43;3.75;;;2.80;;
50733;SDS011;36701;51.798;19.474;2023-07-02T07:07:09;5.03;;;2.97;;
50733;SDS011;36701;51.798;19.474;2023-07-02T07:09:36;7.50;;;3.37;;
50733;SDS011;36701;51.798;19.474;2023-07-02T07:12:02;8.27;;;3.35;;
50733;SDS011;36701;51.798;19.474;2023-07-02T07:14:29;6.15;;;3.40;;
50733;SDS011;36701;51.798;19.474;2023-07-02T07:16:55;3.83;;;3.00;;
50733;SDS011;36701;51.798;19.474;2023-07-02T07:19:21;3.42;;;3.12;;
50733;SDS011;36701;51.798;19.474;2023-07-02T07:21:47;7.37;;;3.75;;
50733;SDS011;36701;51.798;19.474;2023-07-02T07:24:13;3.90;;;2.92;;
50733;SDS011;36701;51.798;19.474;2023-07-02T07:26:39;5.70;;;2.78;;
50733;SDS011;36701;51.798;19.474;2023-07-02T07:29:05;6.50;;;4.07;;
50733;SDS011;36701;51.798;19.474;2023-07-02T07:31:32;6.03;;;3.30;;
50733;SDS011;36701;51.798;19.474;2023-07-02T07:33:58;2.90;;;2.58;;
50733;SDS011;36701;51.798;19.474;2023-07-02T07:36:24;5.45;;;3.10;;
50733;SDS011;36701;51.798;19.474;2023-07-02T07:38:50;4.97;;;2.67;;
50733;SDS011;36701;51.798;19.474;2023-07-02T07:41:16;3.10;;;2.80;;
50733;SDS011;36701;51.798;19.474;2023-07-02T07:43:42;4.30;;;2.70;;
50733;SDS011;36701;51.798;19.474;2023-07-02T07:46:09;6.25;;;2.33;;
50733;SDS011;36701;51.798;19.474;2023-07-02T07:48:35;5.43;;;3.95;;
50733;SDS011;36701;51.798;19.474;2023-07-02T07:51:01;3.15;;;2.62;;
50733;SDS011;36701;51.798;19.474;2023-07-02T07:53:37;3.35;;;2.85;;
50733;SDS011;36701;51.798;19.474;2023-07-02T07:56:03;2.75;;;2.55;;
50733;SDS011;36701;51.798;19.474;2023-07-02T07:58:29;7.45;;;3.22;;
50733;SDS011;36701;51.798;19.474;2023-07-02T08:00:57;18.08;;;3.28;;
50733;SDS011;36701;51.798;19.474;2023-07-02T08:03:24;10.98;;;2.65;;
50733;SDS011;36701;51.798;19.474;2023-07-02T08:05:50;3.45;;;2.50;;
50733;SDS011;36701;51.798;19.474;2023-07-02T08:08:16;4.07;;;2.40;;
50733;SDS011;36701;51.798;19.474;2023-07-02T08:10:42;2.35;;;2.25;;
50733;SDS011;36701;51.798;19.474;2023-07-02T08:13:08;2.22;;;2.05;;
50733;SDS011;36701;51.798;19.474;2023-07-02T08:15:34;3.50;;;2.30;;
50733;SDS011;36701;51.798;19.474;2023-07-02T08:18:01;3.95;;;2.28;;
50733;SDS011;36701;51.798;19.474;2023-07-02T08:20:27;4.47;;;2.58;;
50733;SDS011;36701;51.798;19.474;2023-07-02T08:22:53;2.45;;;1.90;;
50733;SDS011;36701;51.798;19.474;2023-07-02T08:27:53;4.47;;;2.05;;
50733;SDS011;36701;51.798;19.474;2023-07-02T08:30:19;6.32;;;2.17;;
50733;SDS011;36701;51.798;19.474;2023-07-02T08:32:45;2.75;;;1.50;;
50733;SDS011;36701;51.798;19.474;2023-07-02T08:35:11;2.30;;;1.70;;
50733;SDS011;36701;51.798;19.474;2023-07-02T08:37:38;4.05;;;1.95;;
50733;SDS011;36701;51.798;19.474;2023-07-02T08:40:04;2.45;;;2.25;;
50733;SDS011;36701;51.798;19.474;2023-07-02T08:42:32;8.88;;;2.20;;
50733;SDS011;36701;51.798;19.474;2023-07-02T08:44:58;3.47;;;1.65;;
50733;SDS011;36701;51.798;19.474;2023-07-02T08:47:25;17.48;;;2.20;;
50733;SDS011;36701;51.798;19.474;2023-07-02T08:49:51;7.03;;;2.00;;
50733;SDS011;36701;51.798;19.474;2023-07-02T08:52:17;3.78;;;1.70;;
50733;SDS011;36701;51.798;19.474;2023-07-02T08:54:43;1.80;;;1.70;;
50733;SDS011;36701;51.798;19.474;2023-07-02T08:57:09;3.70;;;1.62;;
50733;SDS011;36701;51.798;19.474;2023-07-02T08:59:36;1.65;;;1.55;;
50733;SDS011;36701;51.798;19.474;2023-07-02T09:02:02;1.37;;;1.37;;
50733;SDS011;36701;51.798;19.474;2023-07-02T09:04:28;1.60;;;1.50;;
50733;SDS011;36701;51.798;19.474;2023-07-02T09:07:04;12.63;;;1.85;;
50733;SDS011;36701;51.798;19.474;2023-07-02T09:09:31;2.92;;;1.30;;
50733;SDS011;36701;51.798;19.474;2023-07-02T09:11:57;2.78;;;1.80;;
50733;SDS011;36701;51.798;19.474;2023-07-02T09:14:30;6.05;;;1.85;;
50733;SDS011;36701;51.798;19.474;2023-07-02T09:17:06;3.75;;;1.37;;
50733;SDS011;36701;51.798;19.474;2023-07-02T09:19:35;1.50;;;1.40;;
50733;SDS011;36701;51.798;19.474;2023-07-02T09:22:01;2.17;;;1.95;;
50733;SDS011;36701;51.798;19.474;2023-07-02T09:24:29;1.70;;;1.60;;
50733;SDS011;36701;51.798;19.474;2023-07-02T09:26:56;1.98;;;1.70;;
50733;SDS011;36701;51.798;19.474;2023-07-02T09:29:27;2.08;;;1.70;;
50733;SDS011;36701;51.798;19.474;2023-07-02T09:32:04;1.45;;;1.45;;
50733;SDS011;36701;51.798;19.474;2023-07-02T09:34:33;3.87;;;1.45;;
50733;SDS011;36701;51.798;19.474;2023-07-02T09:37:01;1.85;;;1.75;;
50733;SDS011;36701;51.798;19.474;2023-07-02T09:39:28;6.30;;;1.70;;
50733;SDS011;36701;51.798;19.474;2023-07-02T09:41:56;8.35;;;1.80;;
50733;SDS011;36701;51.798;19.474;2023-07-02T09:44:27;2.37;;;1.60;;
50733;SDS011;36701;51.798;19.474;2023-07-02T09:47:00;6.37;;;1.42;;
50733;SDS011;36701;51.798;19.474;2023-07-02T09:49:31;1.30;;;1.30;;
50733;SDS011;36701;51.798;19.474;2023-07-02T09:51:58;1.30;;;1.30;;
50733;SDS011;36701;51.798;19.474;2023-07-02T09:54:24;2.30;;;1.62;;
50733;SDS011;36701;51.798;19.474;2023-07-02T09:56:51;7.87;;;1.70;;
50733;SDS011;36701;51.798;19.474;2023-07-02T09:59:17;1.73;;;1.62;;
50733;SDS011;36701;51.798;19.474;2023-07-02T10:01:43;1.45;;;1.45;;
50733;SDS011;36701;51.798;19.474;2023-07-02T10:04:11;3.70;;;1.58;;
50733;SDS011;36701;51.798;19.474;2023-07-02T10:06:44;1.52;;;1.33;;
50733;SDS011;36701;51.798;19.474;2023-07-02T10:09:11;1.20;;;1.20;;
50733;SDS011;36701;51.798;19.474;2023-07-02T10:11:40;4.28;;;1.30;;
50733;SDS011;36701;51.798;19.474;2023-07-02T10:14:07;7.57;;;1.73;;
50733;SDS011;36701;51.798;19.474;2023-07-02T10:16:47;6.20;;;2.10;;
50733;SDS011;36701;51.798;19.474;2023-07-02T10:19:16;2.60;;;1.98;;
50733;SDS011;36701;51.798;19.474;2023-07-02T10:21:43;3.08;;;2.12;;
50733;SDS011;36701;51.798;19.474;2023-07-02T10:24:15;5.80;;;2.47;;
50733;SDS011;36701;51.798;19.474;2023-07-02T10:26:55;2.62;;;2.10;;
50733;SDS011;36701;51.798;19.474;2023-07-02T10:29:23;4.22;;;2.30;;
50733;SDS011;36701;51.798;19.474;2023-07-02T10:31:51;9.70;;;3.50;;
50733;SDS011;36701;51.798;19.474;2023-07-02T10:34:33;4.35;;;3.15;;
50733;SDS011;36701;51.798;19.474;2023-07-02T10:37:02;3.25;;;2.30;;
50733;SDS011;36701;51.798;19.474;2023-07-02T10:39:38;4.57;;;2.53;;
50733;SDS011;36701;51.798;19.474;2023-07-02T10:42:05;12.65;;;2.75;;
50733;SDS011;36701;51.798;19.474;2023-07-02T10:44:32;3.78;;;2.33;;
50733;SDS011;36701;51.798;19.474;2023-07-02T10:47:03;2.37;;;2.17;;
50733;SDS011;36701;51.798;19.474;2023-07-02T10:49:31;3.15;;;2.62;;
50733;SDS011;36701;51.798;19.474;2023-07-02T10:52:01;2.00;;;1.90;;
50733;SDS011;36701;51.798;19.474;2023-07-02T10:54:38;3.40;;;2.17;;
50733;SDS011;36701;51.798;19.474;2023-07-02T10:57:06;5.93;;;2.60;;
50733;SDS011;36701;51.798;19.474;2023-07-02T10:59:32;4.60;;;3.20;;
50733;SDS011;36701;51.798;19.474;2023-07-02T11:02:04;4.03;;;1.92;;
50733;SDS011;36701;51.798;19.474;2023-07-02T11:04:32;2.00;;;1.90;;
50733;SDS011;36701;51.798;19.474;2023-07-02T11:07:02;2.70;;;1.80;;
50733;SDS011;36701;51.798;19.474;2023-07-02T11:09:28;5.12;;;1.75;;
50733;SDS011;36701;51.798;19.474;2023-07-02T11:11:55;2.20;;;2.10;;
50733;SDS011;36701;51.798;19.474;2023-07-02T11:14:31;1.75;;;1.65;;
50733;SDS011;36701;51.798;19.474;2023-07-02T11:16:58;1.90;;;1.80;;
50733;SDS011;36701;51.798;19.474;2023-07-02T11:19:25;5.53;;;2.00;;
50733;SDS011;36701;51.798;19.474;2023-07-02T11:21:52;3.25;;;1.67;;
50733;SDS011;36701;51.798;19.474;2023-07-02T11:24:26;9.95;;;1.58;;
50733;SDS011;36701;51.798;19.474;2023-07-02T11:26:52;2.22;;;1.67;;
50733;SDS011;36701;51.798;19.474;2023-07-02T11:29:18;1.50;;;1.50;;
50733;SDS011;36701;51.798;19.474;2023-07-02T11:31:44;1.58;;;1.58;;
50733;SDS011;36701;51.798;19.474;2023-07-02T11:34:11;1.73;;;1.62;;
50733;SDS011;36701;51.798;19.474;2023-07-02T11:36:38;11.52;;;1.55;;
50733;SDS011;36701;51.798;19.474;2023-07-02T11:39:04;2.05;;;1.50;;
50733;SDS011;36701;51.798;19.474;2023-07-02T11:41:37;8.27;;;1.80;;
50733;SDS011;36701;51.798;19.474;2023-07-02T11:44:04;1.98;;;1.30;;
50733;SDS011;36701;51.798;19.474;2023-07-02T11:46:30;3.03;;;1.48;;
50733;SDS011;36701;51.798;19.474;2023-07-02T11:48:56;1.42;;;1.42;;
50733;SDS011;36701;51.798;19.474;2023-07-02T11:51:22;2.28;;;1.35;;
50733;SDS011;36701;51.798;19.474;2023-07-02T11:53:49;2.35;;;1.40;;
50733;SDS011;36701;51.798;19.474;2023-07-02T11:56:14;1.05;;;1.05;;
50733;SDS011;36701;51.798;19.474;2023-07-02T11:58:41;3.05;;;1.17;;
50733;SDS011;36701;51.798;19.474;2023-07-02T12:01:14;5.93;;;1.58;;
50733;SDS011;36701;51.798;19.474;2023-07-02T12:03:41;6.10;;;1.67;;
50733;SDS011;36701;51.798;19.474;2023-07-02T12:06:07;1.65;;;1.50;;
50733;SDS011;36701;51.798;19.474;2023-07-02T12:08:33;2.92;;;1.27;;
50733;SDS011;36701;51.798;19.474;2023-07-02T12:10:59;1.58;;;1.48;;
50733;SDS011;36701;51.798;19.474;2023-07-02T12:13:25;1.48;;;1.33;;
50733;SDS011;36701;51.798;19.474;2023-07-02T12:15:51;1.33;;;1.30;;
50733;SDS011;36701;51.798;19.474;2023-07-02T12:18:18;1.50;;;1.40;;
50733;SDS011;36701;51.798;19.474;2023-07-02T12:20:44;1.27;;;1.20;;
50733;SDS011;36701;51.798;19.474;2023-07-02T12:23:10;2.55;;;1.30;;
50733;SDS011;36701;51.798;19.474;2023-07-02T12:25:37;1.30;;;1.20;;
50733;SDS011;36701;51.798;19.474;2023-07-02T12:28:04;9.23;;;1.98;;
50733;SDS011;36701;51.798;19.474;2023-07-02T12:30:30;2.78;;;1.40;;
50733;SDS011;36701;51.798;19.474;2023-07-02T12:32:57;5.40;;;1.27;;
50733;SDS011;36701;51.798;19.474;2023-07-02T12:35:23;1.40;;;1.30;;
50733;SDS011;36701;51.798;19.474;2023-07-02T12:37:50;3.58;;;1.75;;
50733;SDS011;36701;51.798;19.474;2023-07-02T12:40:16;6.50;;;1.48;;
50733;SDS011;36701;51.798;19.474;2023-07-02T12:42:43;1.50;;;1.40;;
50733;SDS011;36701;51.798;19.474;2023-07-02T12:45:10;1.33;;;1.23;;
50733;SDS011;36701;51.798;19.474;2023-07-02T12:47:38;4.35;;;1.05;;
50733;SDS011;36701;51.798;19.474;2023-07-02T12:50:04;3.80;;;1.48;;
50733;SDS011;36701;51.798;19.474;2023-07-02T12:52:30;2.12;;;2.03;;
50733;SDS011;36701;51.798;19.474;2023-07-02T12:54:57;2.17;;;1.37;;
50733;SDS011;36701;51.798;19.474;2023-07-02T12:57:23;3.42;;;2.12;;
50733;SDS011;36701;51.798;19.474;2023-07-02T12:59:49;1.65;;;1.50;;
50733;SDS011;36701;51.798;19.474;2023-07-02T13:02:15;1.60;;;1.50;;
50733;SDS011;36701;51.798;19.474;2023-07-02T13:04:41;7.93;;;1.55;;
50733;SDS011;36701;51.798;19.474;2023-07-02T13:07:07;1.80;;;1.70;;
50733;SDS011;36701;51.798;19.474;2023-07-02T13:09:33;1.87;;;1.52;;
50733;SDS011;36701;51.798;19.474;2023-07-02T13:12:07;5.20;;;1.50;;
50733;SDS011;36701;51.798;19.474;2023-07-02T13:14:34;1.92;;;1.30;;
50733;SDS011;36701;51.798;19.474;2023-07-02T13:17:00;1.35;;;1.35;;
50733;SDS011;36701;51.798;19.474;2023-07-02T13:19:26;5.85;;;1.30;;
50733;SDS011;36701;51.798;19.474;2023-07-02T13:21:52;5.22;;;1.25;;
50733;SDS011;36701;51.798;19.474;2023-07-02T13:24:18;7.50;;;1.75;;
50733;SDS011;36701;51.798;19.474;2023-07-02T13:26:45;1.58;;;1.48;;
50733;SDS011;36701;51.798;19.474;2023-07-02T13:29:11;1.12;;;1.12;;
50733;SDS011;36701;51.798;19.474;2023-07-02T13:31:37;1.17;;;1.15;;
50733;SDS011;36701;51.798;19.474;2023-07-02T13:34:03;2.33;;;2.05;;
50733;SDS011;36701;51.798;19.474;2023-07-02T13:36:29;1.67;;;1.10;;
50733;SDS011;36701;51.798;19.474;2023-07-02T13:38:55;4.00;;;1.37;;
50733;SDS011;36701;51.798;19.474;2023-07-02T13:41:21;5.80;;;1.70;;
50733;SDS011;36701;51.798;19.474;2023-07-02T13:43:48;7.07;;;1.42;;
50733;SDS011;36701;51.798;19.474;2023-07-02T13:46:14;1.48;;;1.48;;
50733;SDS011;36701;51.798;19.474;2023-07-02T13:48:40;1.37;;;1.23;;
50733;SDS011;36701;51.798;19.474;2023-07-02T13:51:07;1.60;;;1.60;;
50733;SDS011;36701;51.798;19.474;2023-07-02T13:53:34;1.45;;;1.45;;
50733;SDS011;36701;51.798;19.474;2023-07-02T13:56:00;1.37;;;1.30;;
50733;SDS011;36701;51.798;19.474;2023-07-02T13:58:26;1.55;;;1.40;;
50733;SDS011;36701;51.798;19.474;2023-07-02T14:00:52;1.45;;;1.30;;
50733;SDS011;36701;51.798;19.474;2023-07-02T14:03:18;4.25;;;1.50;;
50733;SDS011;36701;51.798;19.474;2023-07-02T14:05:45;1.58;;;1.48;;
50733;SDS011;36701;51.798;19.474;2023-07-02T14:08:10;1.40;;;1.30;;
50733;SDS011;36701;51.798;19.474;2023-07-02T14:10:37;3.80;;;1.60;;
50733;SDS011;36701;51.798;19.474;2023-07-02T14:13:10;1.60;;;1.50;;
50733;SDS011;36701;51.798;19.474;2023-07-02T14:15:36;2.80;;;1.42;;
50733;SDS011;36701;51.798;19.474;2023-07-02T14:18:02;1.98;;;1.58;;
50733;SDS011;36701;51.798;19.474;2023-07-02T14:20:28;2.45;;;2.05;;
50733;SDS011;36701;51.798;19.474;2023-07-02T14:22:54;1.52;;;1.37;;
50733;SDS011;36701;51.798;19.474;2023-07-02T14:25:20;1.85;;;1.75;;
50733;SDS011;36701;51.798;19.474;2023-07-02T14:27:46;3.17;;;1.37;;
50733;SDS011;36701;51.798;19.474;2023-07-02T14:30:13;3.50;;;1.77;;
50733;SDS011;36701;51.798;19.474;2023-07-02T14:32:39;1.65;;;1.50;;
50733;SDS011;36701;51.798;19.474;2023-07-02T14:35:06;4.53;;;1.35;;
50733;SDS011;36701;51.798;19.474;2023-07-02T14:37:32;5.20;;;1.25;;
50733;SDS011;36701;51.798;19.474;2023-07-02T14:39:59;2.17;;;1.60;;
50733;SDS011;36701;51.798;19.474;2023-07-02T14:42:25;10.32;;;1.42;;
50733;SDS011;36701;51.798;19.474;2023-07-02T14:44:51;2.22;;;1.73;;
50733;SDS011;36701;51.798;19.474;2023-07-02T14:47:17;9.02;;;1.50;;
50733;SDS011;36701;51.798;19.474;2023-07-02T14:49:43;2.92;;;1.45;;
50733;SDS011;36701;51.798;19.474;2023-07-02T14:52:09;1.35;;;1.35;;
50733;SDS011;36701;51.798;19.474;2023-07-02T14:54:36;1.85;;;1.23;;
50733;SDS011;36701;51.798;19.474;2023-07-02T14:57:02;9.73;;;1.30;;
50733;SDS011;36701;51.798;19.474;2023-07-02T14:59:29;1.85;;;1.75;;
50733;SDS011;36701;51.798;19.474;2023-07-02T15:01:55;3.45;;;1.50;;
50733;SDS011;36701;51.798;19.474;2023-07-02T15:04:21;1.35;;;1.35;;
50733;SDS011;36701;51.798;19.474;2023-07-02T15:06:47;4.43;;;1.52;;
50733;SDS011;36701;51.798;19.474;2023-07-02T15:09:13;6.12;;;1.80;;
50733;SDS011;36701;51.798;19.474;2023-07-02T15:11:39;1.50;;;1.50;;
50733;SDS011;36701;51.798;19.474;2023-07-02T15:14:05;1.40;;;1.40;;
50733;SDS011;36701;51.798;19.474;2023-07-02T15:16:31;1.50;;;1.40;;
50733;SDS011;36701;51.798;19.474;2023-07-02T15:18:58;6.87;;;2.25;;
50733;SDS011;36701;51.798;19.474;2023-07-02T15:21:24;2.35;;;1.73;;
50733;SDS011;36701;51.798;19.474;2023-07-02T15:23:50;7.12;;;2.20;;
50733;SDS011;36701;51.798;19.474;2023-07-02T15:26:16;4.15;;;2.08;;
50733;SDS011;36701;51.798;19.474;2023-07-02T15:28:42;2.35;;;1.70;;
50733;SDS011;36701;51.798;19.474;2023-07-02T15:31:09;1.62;;;1.42;;
50733;SDS011;36701;51.798;19.474;2023-07-02T15:33:36;2.60;;;1.30;;
50733;SDS011;36701;51.798;19.474;2023-07-02T15:36:03;1.55;;;1.52;;
50733;SDS011;36701;51.798;19.474;2023-07-02T15:38:30;2.40;;;1.50;;
50733;SDS011;36701;51.798;19.474;2023-07-02T15:41:09;3.92;;;1.55;;
50733;SDS011;36701;51.798;19.474;2023-07-02T15:43:37;1.10;;;1.10;;
50733;SDS011;36701;51.798;19.474;2023-07-02T15:46:04;7.45;;;2.40;;
50733;SDS011;36701;51.798;19.474;2023-07-02T15:48:30;3.92;;;1.60;;
50733;SDS011;36701;51.798;19.474;2023-07-02T15:53:29;1.67;;;1.30;;
50733;SDS011;36701;51.798;19.474;2023-07-02T15:55:55;1.70;;;1.60;;
50733;SDS011;36701;51.798;19.474;2023-07-02T15:58:23;1.30;;;1.20;;
50733;SDS011;36701;51.798;19.474;2023-07-02T16:00:49;21.25;;;2.05;;
50733;SDS011;36701;51.798;19.474;2023-07-02T16:03:15;4.22;;;1.55;;
50733;SDS011;36701;51.798;19.474;2023-07-02T16:05:41;3.25;;;1.65;;
50733;SDS011;36701;51.798;19.474;2023-07-02T16:08:07;3.42;;;1.60;;
50733;SDS011;36701;51.798;19.474;2023-07-02T16:10:33;3.20;;;2.12;;
50733;SDS011;36701;51.798;19.474;2023-07-02T16:13:00;1.70;;;1.60;;
50733;SDS011;36701;51.798;19.474;2023-07-02T16:15:26;5.12;;;1.60;;
50733;SDS011;36701;51.798;19.474;2023-07-02T16:17:52;2.85;;;1.30;;
50733;SDS011;36701;51.798;19.474;2023-07-02T16:20:18;1.52;;;1.48;;
50733;SDS011;36701;51.798;19.474;2023-07-02T16:22:45;5.55;;;1.37;;
50733;SDS011;36701;51.798;19.474;2023-07-02T16:25:11;6.32;;;1.48;;
50733;SDS011;36701;51.798;19.474;2023-07-02T16:27:37;10.13;;;1.80;;
50733;SDS011;36701;51.798;19.474;2023-07-02T16:30:03;2.03;;;1.52;;
50733;SDS011;36701;51.798;19.474;2023-07-02T16:32:30;5.62;;;1.50;;
50733;SDS011;36701;51.798;19.474;2023-07-02T16:34:57;2.70;;;1.35;;
50733;SDS011;36701;51.798;19.474;2023-07-02T16:37:23;4.65;;;1.73;;